Fredericksburg, TX (78624)

1:17 PM CDT on July 24, 2016 (GMT -0500)
Stehling Hill US 87 North | | Change Station

Elev 1957 ft 30.33 °N, 98.92 °W | Updated 8 seconds ago

Clear
Clear
92.1 °F
Feels Like 98 °F
N
4.0
Wind Variable Wind from South
Gusts 5.0 mph

Today
High -- | Low -- °F
--% Chance of Precip.
Yesterday
High -- | Low -- °F
Precip. -- in
Pressure 30.00 in
Visibility 10.0 miles
Clouds Clear
Heat Index 98 °F
Dew Point 70 °F
Humidity 49%
Rainfall 0.00 in
Snow Depth Not available.
6:49 AM 8:34 PM
Waning Gibbous, 74% visible
METAR KT82 241755Z AUTO 15003KT 10SM CLR 32/17 A3000 RMK AO2 T03240168 10332 20235
Pressure 30.00 in
Visibility 10.0 miles
Clouds Clear
Heat Index 98 °F
Dew Point 70 °F
Humidity 49%
Rainfall 0.00 in
Snow Depth Not available.
6:49 AM 8:34 PM
Waning Gibbous, 74% visible
METAR KT82 241755Z AUTO 15003KT 10SM CLR 32/17 A3000 RMK AO2 T03240168 10332 20235

10-Day Weather Forecast

Almanac

Astronomy

Jul. 24, 2016 Rise Set
Actual Time
Civil Twilight
Nautical Twilight
Astronomical Twilight
Moon
Length of Visible Light
Length of Day
Tomorrow will be .
, % of the Moon is Illuminated

Today's Extremes

State Highs State Lows

Community

WunderPhotos

Upload Photos

1,927,143 photos uploaded!

WunderBlog® & News

Nearby

Air Quality

  Air Quality AQ Index Pollutant
Not available.

Snow Depth

Station Depth Elevation

Earthquake Activity

City Distance Mag. Time & Date
Minimum magnitude displayed is 2.5.

Coastal Water Temperatures

Place Temperature

Stations

Nearby Weather Stations

Station Location Temp. Windchill Dew Point Humidity Wind Precip. Elev Updated Type
                   

Watches & Warnings

There are currently no watches in effect.